TimeMDT,TemperatureF,Dew PointF,Humidity,Sea Level PressureIn,VisibilityMPH,Wind Direction,Wind SpeedMPH,Gust SpeedMPH,PrecipitationIn,Events,Conditions,WindDirDegrees,DateUTC
12:15 AM,28.0,21.0,75,30.18,10.0,West,5.8,-,N/A,,Clear,270,2013-11-02 06:15:00
12:35 AM,28.0,22.3,79,30.19,10.0,West,11.5,-,N/A,,Clear,260,2013-11-02 06:35:00
12:55 AM,29.8,23.0,76,30.20,10.0,West,8.1,-,N/A,,Clear,260,2013-11-02 06:55:00
1:15 AM,30.2,23.0,75,30.21,10.0,WSW,9.2,-,N/A,,Clear,250,2013-11-02 07:15:00
1:35 AM,29.1,22.6,77,30.21,10.0,WSW,6.9,-,N/A,,Clear,250,2013-11-02 07:35:00
1:55 AM,27.0,22.1,82,30.22,10.0,WSW,8.1,-,N/A,,Clear,250,2013-11-02 07:55:00
2:15 AM,28.0,22.6,80,30.21,10.0,WSW,9.2,-,N/A,,Clear,250,2013-11-02 08:15:00
2:35 AM,27.0,21.6,80,30.22,10.0,West,4.6,-,N/A,,Clear,270,2013-11-02 08:35:00
2:55 AM,25.5,21.0,83,30.21,10.0,West,5.8,-,N/A,,Clear,260,2013-11-02 08:55:00
3:15 AM,26.6,21.9,82,30.21,10.0,WSW,3.5,-,N/A,,Clear,250,2013-11-02 09:15:00
3:35 AM,25.7,21.7,85,30.21,10.0,WSW,4.6,-,N/A,,Clear,240,2013-11-02 09:35:00
3:55 AM,25.9,22.1,86,30.21,10.0,West,5.8,-,N/A,,Clear,260,2013-11-02 09:55:00
4:15 AM,26.6,22.6,85,30.22,10.0,West,4.6,-,N/A,,Clear,270,2013-11-02 10:15:00
4:35 AM,25.7,21.9,86,30.22,10.0,WSW,4.6,-,N/A,,Clear,240,2013-11-02 10:35:00
4:55 AM,25.5,22.1,87,30.22,10.0,WSW,8.1,-,N/A,,Clear,250,2013-11-02 10:55:00
5:15 AM,24.6,21.2,87,30.22,10.0,WSW,6.9,-,N/A,,Clear,250,2013-11-02 11:15:00
5:35 AM,24.6,21.7,89,30.22,10.0,WSW,5.8,-,N/A,,Clear,240,2013-11-02 11:35:00
5:55 AM,23.2,20.1,88,30.21,10.0,West,4.6,-,N/A,,Clear,280,2013-11-02 11:55:00
6:15 AM,23.0,20.1,89,30.22,10.0,West,5.8,-,N/A,,Clear,270,2013-11-02 12:15:00
6:35 AM,23.5,20.8,89,30.22,10.0,WSW,6.9,-,N/A,,Clear,250,2013-11-02 12:35:00
6:55 AM,23.0,20.3,89,30.22,10.0,Calm,Calm,-,N/A,,Clear,0,2013-11-02 12:55:00
7:15 AM,22.8,20.1,89,30.21,10.0,Calm,Calm,-,N/A,,Clear,0,2013-11-02 13:15:00
7:35 AM,22.5,19.4,88,30.21,10.0,Calm,Calm,-,N/A,,Clear,0,2013-11-02 13:35:00
7:55 AM,23.5,20.3,87,30.20,10.0,Calm,Calm,-,N/A,,Clear,0,2013-11-02 13:55:00
8:15 AM,25.5,22.1,87,30.21,10.0,Calm,Calm,-,N/A,,Clear,0,2013-11-02 14:15:00
8:35 AM,28.2,24.8,87,30.22,10.0,WSW,3.5,-,N/A,,Clear,250,2013-11-02 14:35:00
8:55 AM,32.0,25.7,78,30.22,10.0,WSW,4.6,-,N/A,,Clear,240,2013-11-02 14:55:00
9:15 AM,35.4,27.0,71,30.22,10.0,West,5.8,-,N/A,,Clear,260,2013-11-02 15:15:00
9:35 AM,38.7,27.9,65,30.21,10.0,WSW,3.5,-,N/A,,Clear,250,2013-11-02 15:35:00
9:55 AM,40.6,28.2,61,30.21,10.0,Calm,Calm,-,N/A,,Clear,0,2013-11-02 15:55:00
11:15 AM,55.0,24.6,31,30.16,10.0,SSW,11.5,-,N/A,,Clear,210,2013-11-02 17:15:00
11:35 AM,56.5,24.3,29,30.16,10.0,SSW,15.0,20.7,N/A,,Clear,200,2013-11-02 17:35:00
11:55 AM,57.9,24.8,28,30.15,10.0,SSW,13.8,18.4,N/A,,Clear,200,2013-11-02 17:55:00
12:15 PM,58.8,24.6,27,30.13,10.0,SSW,13.8,-,N/A,,Clear,200,2013-11-02 18:15:00
12:35 PM,59.5,24.4,26,30.11,10.0,South,11.5,-,N/A,,Clear,190,2013-11-02 18:35:00
12:55 PM,60.3,23.9,25,30.09,10.0,South,17.3,25.3,N/A,,Clear,190,2013-11-02 18:55:00
1:15 PM,61.0,24.1,24,30.07,10.0,South,11.5,21.9,N/A,,Clear,190,2013-11-02 19:15:00
1:35 PM,61.7,24.3,24,30.06,10.0,South,11.5,19.6,N/A,,Clear,180,2013-11-02 19:35:00
1:55 PM,61.7,23.7,23,30.04,10.0,South,15.0,-,N/A,,Clear,190,2013-11-02 19:55:00
2:15 PM,62.4,23.7,23,30.03,10.0,South,13.8,20.7,N/A,,Clear,180,2013-11-02 20:15:00
2:35 PM,62.8,23.5,22,30.02,10.0,South,15.0,20.7,N/A,,Clear,190,2013-11-02 20:35:00
2:55 PM,63.1,23.9,22,30.00,10.0,South,16.1,19.6,N/A,,Clear,190,2013-11-02 20:55:00
3:15 PM,63.5,23.7,22,29.99,10.0,South,17.3,20.7,N/A,,Clear,190,2013-11-02 21:15:00
3:35 PM,63.7,23.2,21,29.98,10.0,South,17.3,20.7,N/A,,Clear,180,2013-11-02 21:35:00
3:55 PM,63.5,23.2,21,29.97,10.0,South,15.0,21.9,N/A,,Clear,190,2013-11-02 21:55:00
4:15 PM,63.0,23.4,22,29.96,10.0,South,16.1,23.0,N/A,,Clear,170,2013-11-02 22:15:00
4:35 PM,62.6,23.7,23,29.95,10.0,South,17.3,21.9,N/A,,Clear,180,2013-11-02 22:35:00
4:55 PM,61.7,23.7,23,29.94,10.0,South,11.5,19.6,N/A,,Clear,170,2013-11-02 22:55:00
5:15 PM,59.9,24.6,26,29.93,10.0,South,10.4,-,N/A,,Clear,170,2013-11-02 23:15:00
5:35 PM,57.6,24.8,28,29.92,10.0,South,10.4,-,N/A,,Clear,170,2013-11-02 23:35:00
5:55 PM,55.4,24.8,31,29.91,10.0,SSE,9.2,-,N/A,,Clear,160,2013-11-02 23:55:00
6:15 PM,54.0,24.8,32,29.90,10.0,ESE,4.6,-,N/A,,Clear,110,2013-11-03 00:15:00
6:35 PM,52.7,24.8,34,29.89,10.0,SSE,8.1,-,N/A,,Clear,150,2013-11-03 00:35:00
6:55 PM,52.5,25.2,35,29.89,10.0,South,12.7,18.4,N/A,,Clear,180,2013-11-03 00:55:00
7:15 PM,52.7,25.2,34,29.88,10.0,South,15.0,20.7,N/A,,Clear,180,2013-11-03 01:15:00
7:35 PM,52.7,25.3,35,29.88,10.0,South,17.3,23.0,N/A,,Clear,180,2013-11-03 01:35:00
7:55 PM,51.3,25.5,37,29.88,10.0,South,11.5,17.3,N/A,,Clear,180,2013-11-03 01:55:00
8:15 PM,49.8,26.1,40,29.88,10.0,South,8.1,-,N/A,,Clear,180,2013-11-03 02:15:00
8:35 PM,48.2,26.4,43,29.86,10.0,Calm,Calm,-,N/A,,Clear,0,2013-11-03 02:35:00
8:55 PM,48.4,26.8,43,29.86,10.0,ESE,3.5,-,N/A,,Clear,120,2013-11-03 02:55:00
9:15 PM,47.3,27.1,46,29.86,10.0,NNE,3.5,-,N/A,,Clear,30,2013-11-03 03:15:00
9:35 PM,46.2,27.5,48,29.85,10.0,Calm,Calm,-,N/A,,Clear,0,2013-11-03 03:35:00
9:55 PM,46.4,28.2,49,29.84,10.0,NE,3.5,-,N/A,,Clear,40,2013-11-03 03:55:00
10:15 PM,46.6,28.9,50,29.84,10.0,NNE,3.5,-,N/A,,Clear,30,2013-11-03 04:15:00
10:35 PM,45.9,29.3,52,29.82,10.0,SSE,9.2,-,N/A,,Clear,150,2013-11-03 04:35:00
10:55 PM,45.1,29.7,55,29.81,10.0,SSE,8.1,-,N/A,,Clear,160,2013-11-03 04:55:00
11:15 PM,43.9,29.5,57,29.80,10.0,South,8.1,-,N/A,,Clear,170,2013-11-03 05:15:00
11:35 PM,43.2,29.5,59,29.80,10.0,Calm,Calm,-,N/A,,Clear,0,2013-11-03 05:35:00
11:55 PM,42.1,29.3,61,29.79,10.0,SSE,3.5,-,N/A,,Clear,150,2013-11-03 05:55:00